createdAt,value
2022-11-16T00:00:05.561Z,14.9
2022-11-16T00:03:00.965Z,14.8
2022-11-16T00:06:00.995Z,14.6
2022-11-16T00:09:00.972Z,14.8
2022-11-16T00:12:00.972Z,14.7
2022-11-16T00:15:00.974Z,14.7
2022-11-16T00:18:00.974Z,14
2022-11-16T00:21:00.971Z,13.9
2022-11-16T00:24:01.002Z,14.2
2022-11-16T00:27:00.982Z,13.8
2022-11-16T00:30:00.985Z,13.3
2022-11-16T00:33:00.986Z,13.8
2022-11-16T00:36:00.992Z,13.3
2022-11-16T00:39:00.989Z,13.2
2022-11-16T00:42:01.017Z,13.4
2022-11-16T00:45:00.992Z,13.3
2022-11-16T00:48:00.994Z,13.4
2022-11-16T00:51:01.000Z,12.7
2022-11-16T00:54:00.998Z,12.7
2022-11-16T00:57:01.004Z,13
2022-11-16T01:00:01.035Z,12.6
2022-11-16T01:03:01.004Z,12.8
2022-11-16T01:06:01.003Z,12.8
2022-11-16T01:09:01.008Z,12.7
2022-11-16T01:12:01.012Z,12.6
2022-11-16T01:15:01.011Z,12.8
2022-11-16T01:18:01.042Z,12.7
2022-11-16T01:21:01.021Z,12.7
2022-11-16T01:24:01.027Z,12.7
2022-11-16T01:27:01.023Z,12.7
2022-11-16T01:30:01.028Z,13.4
2022-11-16T01:33:01.032Z,13.6
2022-11-16T01:36:01.054Z,13
2022-11-16T01:39:01.033Z,13.7
2022-11-16T01:42:01.047Z,14.2
2022-11-16T01:45:01.049Z,14
2022-11-16T01:48:01.067Z,14.5
2022-11-16T01:51:01.045Z,14.4
2022-11-16T01:54:01.075Z,15.4
2022-11-16T01:57:01.063Z,15.2
2022-11-16T02:00:01.057Z,15.4
2022-11-16T02:03:01.057Z,15.8
2022-11-16T02:06:01.059Z,16.5
2022-11-16T02:09:01.059Z,17.7
2022-11-16T02:12:01.107Z,18.2
2022-11-16T02:15:01.081Z,18.8
2022-11-16T02:18:01.078Z,18.9
2022-11-16T02:21:01.074Z,19.5
2022-11-16T02:24:01.072Z,19.6
2022-11-16T02:27:01.089Z,20.4
2022-11-16T02:30:01.103Z,20.1
2022-11-16T02:33:01.089Z,20.8
2022-11-16T02:36:01.088Z,21.2
2022-11-16T02:39:01.091Z,22.4
2022-11-16T02:42:01.105Z,22.3
2022-11-16T02:45:01.097Z,22.6
2022-11-16T02:48:01.128Z,22.2
2022-11-16T02:51:01.108Z,23.4
2022-11-16T02:54:01.116Z,23.9
2022-11-16T02:57:01.118Z,24.2
2022-11-16T03:00:01.111Z,25.2
2022-11-16T03:03:01.118Z,25.5
2022-11-16T03:06:01.146Z,26.4
2022-11-16T03:09:01.125Z,27.1
2022-11-16T03:12:01.143Z,27.8
2022-11-16T03:15:01.139Z,28.7
2022-11-16T03:18:01.140Z,28.8
2022-11-16T03:21:01.142Z,29
2022-11-16T03:24:01.164Z,28.3
2022-11-16T03:27:01.159Z,29.5
2022-11-16T03:30:01.144Z,29.6
2022-11-16T03:33:01.150Z,29.7
2022-11-16T03:36:01.152Z,29.5
2022-11-16T03:39:01.153Z,30
2022-11-16T03:42:01.193Z,28
2022-11-16T03:45:01.168Z,29.1
2022-11-16T03:48:01.173Z,29.4
2022-11-16T03:51:01.176Z,29.1
2022-11-16T03:54:01.183Z,29.6
2022-11-16T03:57:01.201Z,28.9
2022-11-16T04:00:01.220Z,28.7
2022-11-16T04:03:01.185Z,28.4
2022-11-16T04:06:01.305Z,28.4
2022-11-16T04:09:01.192Z,28.7
2022-11-16T04:12:01.207Z,28.3
2022-11-16T04:15:01.203Z,29.9
2022-11-16T04:18:01.229Z,28.9
2022-11-16T04:21:01.440Z,28.1
2022-11-16T04:24:01.206Z,29.3
2022-11-16T04:27:01.216Z,29.7
2022-11-16T04:30:01.216Z,29.2
2022-11-16T04:33:01.211Z,30
2022-11-16T04:36:01.239Z,29.8
2022-11-16T04:39:01.216Z,29.1
2022-11-16T04:42:01.248Z,28.6
2022-11-16T04:45:01.223Z,29
2022-11-16T04:48:01.225Z,28.5
2022-11-16T04:51:01.235Z,28.4
2022-11-16T04:54:01.263Z,28
2022-11-16T04:57:01.252Z,28
2022-11-16T05:00:01.244Z,27.3
2022-11-16T05:03:01.993Z,27.7
2022-11-16T05:06:01.254Z,27.4
2022-11-16T05:09:01.252Z,26.3
2022-11-16T05:12:01.291Z,25.5
2022-11-16T05:15:01.265Z,24.8
2022-11-16T05:18:01.265Z,25
2022-11-16T05:21:01.271Z,24.2
2022-11-16T05:24:01.270Z,24.3
2022-11-16T05:27:01.283Z,24.7
2022-11-16T05:30:01.370Z,24.8
2022-11-16T05:33:01.283Z,24
2022-11-16T05:36:01.282Z,24.9
2022-11-16T05:39:01.295Z,24.6
2022-11-16T05:42:01.315Z,24.3
2022-11-16T05:45:01.302Z,24.4
2022-11-16T05:48:01.326Z,24.7
2022-11-16T05:51:01.312Z,23.9
2022-11-16T05:54:01.315Z,23.9
2022-11-16T05:57:01.324Z,24.2
2022-11-16T06:00:01.323Z,23.4
2022-11-16T06:03:01.373Z,23.6
2022-11-16T06:06:01.353Z,22.9
2022-11-16T06:09:01.343Z,23.8
2022-11-16T06:12:01.360Z,24.5
2022-11-16T06:15:01.366Z,24.1
2022-11-16T06:18:01.653Z,24.1
2022-11-16T06:21:01.363Z,23.3
2022-11-16T06:24:01.358Z,24.1
2022-11-16T06:27:01.375Z,23.4
2022-11-16T06:30:01.368Z,23.7
2022-11-16T06:33:01.376Z,23.4
2022-11-16T06:36:02.248Z,24
2022-11-16T06:39:01.387Z,24.1
2022-11-16T06:42:01.398Z,23.6
2022-11-16T06:45:01.389Z,24.1
2022-11-16T06:48:01.396Z,24.1
2022-11-16T06:51:01.393Z,23.9
2022-11-16T06:54:01.526Z,23.8
2022-11-16T06:57:01.430Z,24.5
2022-11-16T07:00:01.422Z,24.2
2022-11-16T07:03:01.430Z,23.9
2022-11-16T07:06:01.439Z,23.7
2022-11-16T07:09:01.440Z,23.7
2022-11-16T07:12:01.577Z,23.9
2022-11-16T07:15:01.455Z,24.3
2022-11-16T07:18:01.459Z,23.9
2022-11-16T07:21:01.466Z,24.1
2022-11-16T07:24:01.468Z,23.8
2022-11-16T07:27:01.483Z,23.7
2022-11-16T07:30:01.750Z,24
2022-11-16T07:33:01.489Z,24.1
2022-11-16T07:36:01.500Z,23.8
2022-11-16T07:39:01.503Z,23.7
2022-11-16T07:42:01.522Z,23.7
2022-11-16T07:45:01.507Z,23.7
2022-11-16T07:48:01.636Z,24
2022-11-16T07:51:01.519Z,23.9
2022-11-16T07:54:01.526Z,23.3
2022-11-16T07:57:01.541Z,23.6
2022-11-16T08:00:01.536Z,23.8
2022-11-16T08:03:01.540Z,23.7
2022-11-16T08:06:01.666Z,24.2
2022-11-16T08:09:01.563Z,24.7
2022-11-16T08:12:01.578Z,24
2022-11-16T08:15:01.569Z,24.6
2022-11-16T08:18:01.586Z,25.1
2022-11-16T08:21:01.582Z,25.9
2022-11-16T08:24:01.711Z,25.4
2022-11-16T08:27:01.606Z,26.2
2022-11-16T08:30:01.606Z,26.5
2022-11-16T08:33:01.620Z,26.3
2022-11-16T08:36:01.617Z,26.2
2022-11-16T08:39:01.624Z,27.3
2022-11-16T08:42:01.760Z,27.4
2022-11-16T08:45:01.643Z,29
2022-11-16T08:48:04.692Z,28.3
2022-11-16T08:51:16.762Z,27.6
2022-11-16T08:54:01.679Z,27.2
2022-11-16T08:57:01.680Z,26.7
2022-11-16T09:00:01.790Z,26.7
2022-11-16T09:03:01.679Z,26.7
2022-11-16T09:06:01.689Z,27.7
2022-11-16T09:09:01.701Z,28
2022-11-16T09:12:01.704Z,29.5
2022-11-16T09:15:01.700Z,29.8
2022-11-16T09:18:01.809Z,29.7
2022-11-16T09:21:01.716Z,30.1
2022-11-16T09:24:01.732Z,30.9
2022-11-16T09:27:01.737Z,30.2
2022-11-16T09:30:01.726Z,30.4
2022-11-16T09:33:01.728Z,29.4
2022-11-16T09:36:01.777Z,29.3
2022-11-16T09:39:29.895Z,28.9
2022-11-16T09:42:01.747Z,27.5
2022-11-16T09:45:01.750Z,26.5
2022-11-16T09:48:01.753Z,26.1
2022-11-16T09:51:01.772Z,26.9
2022-11-16T09:54:01.792Z,25.7
2022-11-16T09:57:01.791Z,24.9
2022-11-16T10:00:01.781Z,24.2
2022-11-16T10:03:01.781Z,23.3
2022-11-16T10:06:01.785Z,23.2
2022-11-16T10:09:01.785Z,22.9
2022-11-16T10:12:01.844Z,22.5
2022-11-16T10:15:01.808Z,21.3
2022-11-16T10:18:01.812Z,21.8
2022-11-16T10:21:01.819Z,22
2022-11-16T10:24:01.828Z,21.8
2022-11-16T10:27:01.841Z,22.1
2022-11-16T10:30:01.965Z,21.9
2022-11-16T10:33:02.807Z,22.2
2022-11-16T10:36:01.846Z,22.1
2022-11-16T10:39:01.860Z,22.3
2022-11-16T10:42:06.191Z,22.9
2022-11-16T10:45:01.867Z,22.7
2022-11-16T10:48:01.989Z,22.6
2022-11-16T10:51:01.879Z,23.1
2022-11-16T10:54:01.874Z,23.1
2022-11-16T10:57:01.889Z,23.4
2022-11-16T11:00:01.888Z,24.2
2022-11-16T11:03:01.893Z,24
2022-11-16T11:06:02.027Z,24.8
2022-11-16T11:09:01.906Z,25.9
2022-11-16T11:12:01.922Z,28.1
2022-11-16T11:15:01.917Z,30.3
2022-11-16T11:18:01.923Z,30.9
2022-11-16T11:21:01.931Z,31.2
2022-11-16T11:24:16.273Z,32.9
2022-11-16T11:27:01.957Z,33.2
2022-11-16T11:30:01.952Z,34.7
2022-11-16T11:33:01.956Z,34.1
2022-11-16T11:36:01.961Z,34.2
2022-11-16T11:39:01.995Z,34.8
2022-11-16T11:42:02.103Z,35.4
2022-11-16T11:45:01.978Z,35.6
2022-11-16T11:48:01.989Z,35.2
2022-11-16T11:51:01.991Z,34.1
2022-11-16T11:54:02.013Z,35.7
2022-11-16T11:57:02.014Z,34.5
2022-11-16T12:00:02.156Z,35
2022-11-16T12:03:02.081Z,34.6
2022-11-16T12:06:02.031Z,35.4
2022-11-16T12:09:02.033Z,33.6
2022-11-16T12:12:02.044Z,33.6
2022-11-16T12:15:02.071Z,34.2
2022-11-16T12:18:02.185Z,34.6
2022-11-16T12:21:02.079Z,34.3
2022-11-16T12:24:02.085Z,34.9
2022-11-16T12:27:02.092Z,35.3
2022-11-16T12:30:02.094Z,35.4
2022-11-16T12:33:02.097Z,36.2
2022-11-16T12:36:02.313Z,36.7
2022-11-16T12:39:02.119Z,35.9
2022-11-16T12:42:02.148Z,36.1
2022-11-16T12:45:02.121Z,36.4
2022-11-16T12:48:02.138Z,38.7
2022-11-16T12:51:02.141Z,38.2
2022-11-16T12:54:02.263Z,37.7
2022-11-16T12:57:02.299Z,37.7
2022-11-16T13:00:02.165Z,36.9
2022-11-16T13:03:02.164Z,36.9
2022-11-16T13:06:02.178Z,35.4
2022-11-16T13:09:02.177Z,36.9
2022-11-16T13:12:02.363Z,37.4
2022-11-16T13:15:02.194Z,37.8
2022-11-16T13:18:02.199Z,37.7
2022-11-16T13:21:02.201Z,38.5
2022-11-16T13:24:02.209Z,35.9
2022-11-16T13:27:02.232Z,36.5
2022-11-16T13:30:02.348Z,36.8
2022-11-16T13:33:02.228Z,36.9
2022-11-16T13:36:02.235Z,36.8
2022-11-16T13:39:02.240Z,33.9
2022-11-16T13:42:02.255Z,33.4
2022-11-16T13:45:02.263Z,33.2
2022-11-16T13:48:02.385Z,32
2022-11-16T13:51:02.263Z,33.2
2022-11-16T13:57:02.295Z,30.9
2022-11-16T14:00:02.288Z,31
2022-11-16T14:03:02.297Z,31.2
2022-11-16T14:06:02.418Z,31.1
2022-11-16T14:09:02.310Z,29.5
2022-11-16T14:12:02.324Z,30.8
2022-11-16T14:15:03.701Z,30.4
2022-11-16T14:18:02.321Z,31
2022-11-16T14:21:02.336Z,31.4
2022-11-16T14:24:02.387Z,31.2
2022-11-16T14:27:02.353Z,31.6
2022-11-16T14:30:02.358Z,31.8
2022-11-16T14:33:02.358Z,31.6
2022-11-16T14:36:02.369Z,32.3
2022-11-16T14:39:02.376Z,32.1
2022-11-16T14:42:02.415Z,32.7
2022-11-16T14:45:02.393Z,31.3
2022-11-16T14:48:02.396Z,30.4
2022-11-16T14:51:02.398Z,30.3
2022-11-16T14:54:02.412Z,29.5
2022-11-16T14:57:02.430Z,29.7
2022-11-16T15:00:02.443Z,29.4
2022-11-16T15:03:03.077Z,30
2022-11-16T15:06:02.433Z,30.2
2022-11-16T15:09:02.437Z,29
2022-11-16T15:12:02.458Z,28.6
2022-11-16T15:15:02.458Z,28.9
2022-11-16T15:18:02.513Z,28.7
2022-11-16T15:21:02.479Z,28.8
2022-11-16T15:24:23.855Z,28.1
2022-11-16T15:27:02.505Z,28.1
2022-11-16T15:30:02.498Z,27.6
2022-11-16T15:33:02.506Z,27.7
2022-11-16T15:36:02.639Z,28
2022-11-16T15:39:02.528Z,27.3
2022-11-16T15:42:04.135Z,26.3
2022-11-16T15:45:02.540Z,26.2
2022-11-16T15:48:02.545Z,25.5
2022-11-16T15:51:04.832Z,24.2
2022-11-16T15:54:02.704Z,23.4
2022-11-16T15:57:02.579Z,23.7
2022-11-16T16:00:02.579Z,22.6
2022-11-16T16:03:02.584Z,22.6
2022-11-16T16:06:02.588Z,22.8
2022-11-16T16:09:02.602Z,22.7
2022-11-16T16:12:02.652Z,23.4
2022-11-16T16:15:02.614Z,23.9
2022-11-16T16:18:02.620Z,24.3
2022-11-16T16:21:02.625Z,23.3
2022-11-16T16:24:02.630Z,23.6
2022-11-16T16:27:02.651Z,23.4
2022-11-16T16:30:02.865Z,22.5
2022-11-16T16:33:02.664Z,22.2
2022-11-16T16:36:02.664Z,22.1
2022-11-16T16:39:02.674Z,20.9
2022-11-16T16:42:02.690Z,19.8
2022-11-16T16:45:02.689Z,19.4
2022-11-16T16:48:02.744Z,19.4
2022-11-16T16:51:02.700Z,19.6
2022-11-16T16:54:02.707Z,18
2022-11-16T16:57:02.754Z,16.6
2022-11-16T17:00:02.719Z,14.4
2022-11-16T17:03:02.724Z,13.5
2022-11-16T17:06:02.760Z,12.8
2022-11-16T17:09:02.734Z,12.1
2022-11-16T17:12:02.757Z,11.7
2022-11-16T17:15:02.750Z,12.6
2022-11-16T17:18:02.753Z,11.9
2022-11-16T17:21:02.765Z,11.4
2022-11-16T17:24:02.885Z,11.7
2022-11-16T17:27:02.796Z,12
2022-11-16T17:30:02.786Z,12.3
2022-11-16T17:33:02.791Z,12.9
2022-11-16T17:36:02.794Z,12.3
2022-11-16T17:39:02.796Z,12.9
2022-11-16T17:42:02.839Z,13.2
2022-11-16T17:45:02.813Z,13.4
2022-11-16T17:48:02.819Z,13.1
2022-11-16T17:51:02.825Z,12.7
2022-11-16T17:54:02.837Z,12.3
2022-11-16T17:57:02.851Z,12.2
2022-11-16T18:00:02.874Z,12.3
2022-11-16T18:03:02.859Z,12.6
2022-11-16T18:06:02.860Z,12.5
2022-11-16T18:09:02.866Z,12.8
2022-11-16T18:12:02.885Z,12.9
2022-11-16T18:15:29.128Z,12.6
2022-11-16T18:18:03.046Z,13.1
2022-11-16T18:21:02.887Z,12.2
2022-11-16T18:24:02.907Z,12.7
2022-11-16T18:27:02.912Z,13.6
2022-11-16T18:30:02.905Z,13.2
2022-11-16T18:33:02.912Z,13.3
2022-11-16T18:36:02.938Z,13.8
2022-11-16T18:39:02.920Z,13.2
2022-11-16T18:42:02.937Z,13.3
2022-11-16T18:45:02.937Z,12.5
2022-11-16T18:48:02.937Z,12.3
2022-11-16T18:51:02.941Z,12
2022-11-16T18:54:03.071Z,11.7
2022-11-16T18:57:02.967Z,12.1
2022-11-16T19:00:02.974Z,10.9
2022-11-16T19:03:05.796Z,11
2022-11-16T19:06:02.965Z,10.5
2022-11-16T19:09:02.965Z,10.6
2022-11-16T19:12:03.098Z,10.5
2022-11-16T19:15:02.979Z,10.1
2022-11-16T19:18:21.975Z,10.5
2022-11-16T19:21:02.978Z,10.1
2022-11-16T19:24:02.980Z,9.8
2022-11-16T19:27:02.991Z,10.1
2022-11-16T19:30:03.105Z,9.9
2022-11-16T19:33:02.986Z,9.8
2022-11-16T19:36:02.985Z,9.9
2022-11-16T19:39:02.986Z,10.7
2022-11-16T19:42:02.998Z,10.4
2022-11-16T19:45:02.991Z,11.4
2022-11-16T19:48:03.255Z,11.2
2022-11-16T19:51:03.012Z,10.3
2022-11-16T19:54:03.023Z,10
2022-11-16T19:57:03.052Z,9.7
2022-11-16T20:00:03.054Z,9.5
2022-11-16T20:03:03.069Z,9.8
2022-11-16T20:06:03.104Z,9.9
2022-11-16T20:09:03.103Z,9.4
2022-11-16T20:12:03.128Z,9.7
2022-11-16T20:15:03.135Z,9.4
2022-11-16T20:18:03.155Z,9.5
2022-11-16T20:21:03.165Z,8.8
2022-11-16T20:24:06.629Z,9.6
2022-11-16T20:27:03.213Z,9.3
2022-11-16T20:30:08.102Z,9.4
2022-11-16T20:33:03.226Z,9.2
2022-11-16T20:36:03.243Z,9.2
2022-11-16T20:39:03.249Z,8.9
2022-11-16T20:42:03.443Z,9.2
2022-11-16T20:45:03.288Z,8.9
2022-11-16T20:48:03.304Z,9.7
2022-11-16T20:51:03.317Z,8.7
2022-11-16T20:54:03.336Z,9.5
2022-11-16T20:57:03.368Z,9.1
2022-11-16T21:00:03.484Z,8.9
2022-11-16T21:03:03.385Z,8.7
2022-11-16T21:06:03.397Z,9
2022-11-16T21:09:03.413Z,8.8
2022-11-16T21:12:03.452Z,8.3
2022-11-16T21:15:03.449Z,9
2022-11-16T21:18:03.595Z,8.9
2022-11-16T21:21:03.486Z,9
2022-11-16T21:24:03.507Z,8.6
2022-11-16T21:27:03.559Z,8.1
2022-11-16T21:30:03.557Z,8.1
2022-11-16T21:33:03.563Z,8
2022-11-16T21:36:03.684Z,7.8
2022-11-16T21:39:03.581Z,7.4
2022-11-16T21:42:03.611Z,7.5
2022-11-16T21:45:03.621Z,7.2
2022-11-16T21:48:03.634Z,7.2
2022-11-16T21:51:03.651Z,6.6
2022-11-16T21:54:03.692Z,6.8
2022-11-16T21:57:03.699Z,6.1
2022-11-16T22:00:03.704Z,6
2022-11-16T22:03:03.722Z,6
2022-11-16T22:06:07.356Z,6.1
2022-11-16T22:09:03.748Z,6.3
2022-11-16T22:12:05.324Z,5.7
2022-11-16T22:15:03.791Z,5.9
2022-11-16T22:18:03.808Z,5.5
2022-11-16T22:21:03.828Z,5.3
2022-11-16T22:24:03.843Z,5
2022-11-16T22:27:03.877Z,4.9
2022-11-16T22:30:04.008Z,5.1
2022-11-16T22:33:03.907Z,4.9
2022-11-16T22:36:03.928Z,4.5
2022-11-16T22:39:03.953Z,4.5
2022-11-16T22:42:03.966Z,4.7
2022-11-16T22:45:03.990Z,4.5
2022-11-16T22:48:04.030Z,4.3
2022-11-16T22:51:04.062Z,4.5
2022-11-16T22:54:04.050Z,4.3
2022-11-16T22:57:04.061Z,4.3
2022-11-16T23:00:04.082Z,4
2022-11-16T23:03:04.136Z,3.9
2022-11-16T23:06:04.252Z,3.7
2022-11-16T23:09:04.137Z,3.8
2022-11-16T23:12:04.152Z,4
2022-11-16T23:15:04.176Z,3.9
2022-11-16T23:18:04.219Z,4.2
2022-11-16T23:21:04.242Z,4.2
2022-11-16T23:24:04.262Z,4.5
2022-11-16T23:27:04.240Z,4.8
2022-11-16T23:30:07.908Z,4.8
2022-11-16T23:33:04.240Z,4.5
2022-11-16T23:36:04.244Z,4.7
2022-11-16T23:39:04.259Z,4.8
2022-11-16T23:42:04.383Z,5.2
2022-11-16T23:45:04.270Z,5.4
2022-11-16T23:48:04.276Z,5.6
2022-11-16T23:51:04.275Z,5.7
2022-11-16T23:54:04.274Z,5.5
2022-11-16T23:57:04.276Z,5.2
